createdAt,value
2022-11-07T00:00:23.245Z,6.90
2022-11-07T00:03:25.299Z,6.57
2022-11-07T00:06:27.311Z,7.10
2022-11-07T00:09:29.334Z,7.07
2022-11-07T00:12:31.402Z,6.17
2022-11-07T00:15:33.396Z,7.72
2022-11-07T00:18:36.279Z,7.20
2022-11-07T00:21:39.727Z,6.70
2022-11-07T00:24:42.073Z,7.37
2022-11-07T00:27:44.141Z,7.33
2022-11-07T00:30:46.155Z,7.68
2022-11-07T00:33:48.614Z,6.90
2022-11-07T00:36:50.927Z,7.12
2022-11-07T00:39:52.956Z,8.07
2022-11-07T00:42:54.871Z,6.53
2022-11-07T00:45:57.867Z,7.12
2022-11-07T00:48:59.892Z,7.18
2022-11-07T00:52:01.950Z,7.07
2022-11-07T00:55:04.673Z,7.13
2022-11-07T00:58:11.218Z,7.23
2022-11-07T01:01:20.221Z,6.75
2022-11-07T01:04:41.115Z,7.22
2022-11-07T01:07:43.092Z,7.22
2022-11-07T01:10:45.094Z,6.87
2022-11-07T01:13:47.042Z,7.43
2022-11-07T01:16:50.157Z,7.30
2022-11-07T01:19:52.118Z,6.90
2022-11-07T01:22:54.135Z,6.85
2022-11-07T01:25:56.153Z,7.10
2022-11-07T01:28:58.251Z,6.73
2022-11-07T01:32:00.260Z,7.03
2022-11-07T01:35:02.242Z,7.80
2022-11-07T01:38:04.765Z,6.87
2022-11-07T01:41:21.330Z,7.07
2022-11-07T01:44:23.213Z,7.43
2022-11-07T01:47:31.571Z,7.75
2022-11-07T01:50:33.570Z,7.70
2022-11-07T01:53:36.463Z,7.32
2022-11-07T01:56:42.096Z,6.60
2022-11-07T01:59:44.217Z,7.53
2022-11-07T02:02:49.541Z,7.47
2022-11-07T02:06:00.217Z,7.45
2022-11-07T02:09:02.312Z,7.03
2022-11-07T02:12:04.592Z,7.70
2022-11-07T02:15:09.444Z,7.33
2022-11-07T02:18:11.622Z,7.68
2022-11-07T02:21:19.296Z,8.00
2022-11-07T02:24:34.236Z,7.93
2022-11-07T02:27:37.608Z,7.47
2022-11-07T02:30:39.634Z,7.70
2022-11-07T02:33:42.120Z,7.37
2022-11-07T02:36:44.169Z,7.40
2022-11-07T02:39:46.354Z,7.95
2022-11-07T02:42:48.891Z,7.70
2022-11-07T02:45:51.807Z,9.20
2022-11-07T02:48:59.498Z,8.25
2022-11-07T02:52:01.856Z,7.97
2022-11-07T02:55:05.406Z,8.13
2022-11-07T02:58:07.610Z,7.77
2022-11-07T03:01:10.006Z,7.77
2022-11-07T03:04:12.015Z,8.02
2022-11-07T03:07:13.942Z,8.00
2022-11-07T03:10:17.753Z,8.30
2022-11-07T03:13:19.721Z,7.93
2022-11-07T03:16:21.694Z,8.10
2022-11-07T03:19:23.668Z,7.00
2022-11-07T03:22:25.733Z,7.70
2022-11-07T03:25:27.682Z,8.07
2022-11-07T03:28:29.835Z,6.93
2022-11-07T03:31:31.843Z,7.60
2022-11-07T03:34:33.919Z,7.75
2022-11-07T03:37:36.391Z,7.18
2022-11-07T03:40:39.093Z,6.68
2022-11-07T03:43:41.049Z,7.47
2022-11-07T03:46:43.160Z,7.47
2022-11-07T03:49:45.116Z,7.62
2022-11-07T03:52:48.076Z,7.57
2022-11-07T03:55:50.082Z,6.85
2022-11-07T03:58:52.039Z,7.00
2022-11-07T04:01:54.118Z,6.63
2022-11-07T04:04:56.156Z,6.82
2022-11-07T04:07:58.216Z,7.45
2022-11-07T04:11:00.261Z,7.28
2022-11-07T04:14:20.822Z,7.43
2022-11-07T04:17:22.935Z,7.37
2022-11-07T04:20:24.951Z,7.00
2022-11-07T04:23:26.928Z,7.32
2022-11-07T04:26:47.453Z,7.40
2022-11-07T04:29:49.438Z,6.77
2022-11-07T04:32:53.901Z,7.83
2022-11-07T04:35:55.888Z,7.57
2022-11-07T04:38:58.550Z,8.02
2022-11-07T04:42:00.495Z,7.80
2022-11-07T04:45:02.500Z,8.23
2022-11-07T04:48:05.948Z,7.63
2022-11-07T04:51:14.195Z,7.22
2022-11-07T04:54:16.588Z,8.02
2022-11-07T04:57:18.587Z,8.30
2022-11-07T05:00:21.548Z,8.13
2022-11-07T05:03:23.425Z,8.77
2022-11-07T05:06:25.704Z,8.05
2022-11-07T05:09:28.002Z,7.37
2022-11-07T05:12:29.948Z,7.97
2022-11-07T05:15:31.910Z,8.53
2022-11-07T05:18:33.942Z,8.37
2022-11-07T05:21:35.914Z,8.43
2022-11-07T05:24:38.126Z,8.85
2022-11-07T05:27:40.083Z,7.95
2022-11-07T05:30:44.088Z,8.37
2022-11-07T05:33:46.128Z,8.57
2022-11-07T05:36:48.297Z,7.95
2022-11-07T05:39:54.826Z,8.07
2022-11-07T05:43:01.705Z,7.97
2022-11-07T05:46:03.844Z,7.90
2022-11-07T05:49:06.018Z,8.13
2022-11-07T05:52:07.942Z,7.78
2022-11-07T05:55:09.911Z,8.93
2022-11-07T05:58:12.616Z,9.90
2022-11-07T06:01:14.625Z,10.50
2022-11-07T06:04:16.600Z,11.43
2022-11-07T06:07:18.572Z,10.55
2022-11-07T06:10:21.017Z,10.60
2022-11-07T06:13:23.314Z,9.68
2022-11-07T06:16:25.555Z,9.10
2022-11-07T06:19:27.561Z,9.27
2022-11-07T06:22:30.319Z,9.10
2022-11-07T06:25:33.037Z,9.43
2022-11-07T06:28:35.314Z,9.80
2022-11-07T06:31:37.386Z,9.13
2022-11-07T06:34:39.460Z,9.80
2022-11-07T06:37:41.458Z,9.38
2022-11-07T06:40:44.563Z,9.75
2022-11-07T06:43:46.637Z,9.95
2022-11-07T06:46:48.673Z,10.90
2022-11-07T06:49:50.721Z,11.57
2022-11-07T06:52:52.734Z,10.73
2022-11-07T06:55:55.727Z,11.93
2022-11-07T06:58:57.802Z,12.48
2022-11-07T07:02:00.089Z,14.80
2022-11-07T07:05:02.116Z,13.93
2022-11-07T07:08:05.937Z,15.60
2022-11-07T07:11:10.635Z,13.00
2022-11-07T07:14:12.769Z,14.10
2022-11-07T07:17:14.731Z,22.57
2022-11-07T07:20:16.850Z,12.50
2022-11-07T07:23:20.189Z,11.35
2022-11-07T07:26:22.448Z,9.40
2022-11-07T07:29:25.215Z,9.68
2022-11-07T07:32:27.240Z,10.13
2022-11-07T07:35:29.280Z,10.43
2022-11-07T07:38:31.556Z,11.23
2022-11-07T07:41:38.992Z,11.40
2022-11-07T07:44:42.048Z,9.77
2022-11-07T07:47:44.116Z,11.67
2022-11-07T07:50:52.452Z,12.73
2022-11-07T07:53:54.619Z,13.25
2022-11-07T07:56:56.594Z,12.73
2022-11-07T07:59:58.801Z,12.73
2022-11-07T08:03:11.901Z,30.33
2022-11-07T08:06:13.806Z,12.53
2022-11-07T08:09:15.755Z,11.88
2022-11-07T08:12:17.747Z,12.77
2022-11-07T08:15:20.549Z,13.38
2022-11-07T08:18:24.297Z,14.97
2022-11-07T08:21:26.297Z,14.43
2022-11-07T08:24:28.520Z,12.20
2022-11-07T08:27:30.629Z,12.35
2022-11-07T08:30:32.864Z,11.35
2022-11-07T08:33:35.515Z,13.50
2022-11-07T08:36:39.905Z,15.07
2022-11-07T08:39:41.907Z,13.02
2022-11-07T08:42:43.944Z,13.95
2022-11-07T08:45:47.820Z,13.23
2022-11-07T08:48:50.159Z,10.27
2022-11-07T08:51:52.238Z,10.70
2022-11-07T08:54:54.330Z,10.27
2022-11-07T08:58:01.169Z,9.55
2022-11-07T09:01:08.121Z,9.27
2022-11-07T09:04:10.363Z,10.40
2022-11-07T09:07:12.383Z,8.97
2022-11-07T09:10:14.670Z,9.25
2022-11-07T09:13:17.208Z,9.40
2022-11-07T09:16:20.390Z,7.82
2022-11-07T09:19:22.458Z,8.17
2022-11-07T09:22:24.547Z,8.00
2022-11-07T09:25:27.092Z,8.93
2022-11-07T09:28:29.796Z,7.53
2022-11-07T09:31:31.781Z,8.23
2022-11-07T09:34:33.747Z,7.70
2022-11-07T09:37:39.325Z,8.03
2022-11-07T09:41:00.539Z,9.13
2022-11-07T09:44:28.067Z,9.20
2022-11-07T09:47:37.432Z,8.88
2022-11-07T09:50:43.131Z,8.03
2022-11-07T09:53:51.278Z,7.77
2022-11-07T09:56:55.835Z,8.20
2022-11-07T10:00:02.232Z,8.88
2022-11-07T10:03:08.988Z,9.02
2022-11-07T10:06:25.134Z,8.38
2022-11-07T10:09:49.676Z,7.80
2022-11-07T10:13:06.730Z,7.00
2022-11-07T10:16:17.785Z,6.97
2022-11-07T10:19:43.948Z,6.87
2022-11-07T10:22:58.061Z,7.12
2022-11-07T10:26:08.181Z,7.30
2022-11-07T10:29:21.403Z,6.72
2022-11-07T10:32:29.319Z,6.78
2022-11-07T10:35:34.070Z,7.45
2022-11-07T10:38:41.438Z,6.82
2022-11-07T10:42:14.440Z,6.60
2022-11-07T10:45:17.795Z,8.07
2022-11-07T10:48:19.929Z,7.50
2022-11-07T10:51:42.607Z,6.62
2022-11-07T10:54:47.526Z,6.43
2022-11-07T10:58:12.466Z,6.13
2022-11-07T11:01:22.990Z,7.07
2022-11-07T11:04:30.495Z,6.50
2022-11-07T11:07:38.802Z,6.60
2022-11-07T11:10:42.258Z,7.45
2022-11-07T11:13:44.332Z,6.57
2022-11-07T11:16:50.016Z,7.25
2022-11-07T11:19:53.840Z,6.95
2022-11-07T11:22:55.931Z,7.12
2022-11-07T11:26:14.342Z,7.60
2022-11-07T11:29:50.527Z,7.80
2022-11-07T11:33:06.783Z,6.90
2022-11-07T11:36:19.589Z,7.80
2022-11-07T11:39:33.122Z,8.20
2022-11-07T11:42:53.995Z,8.30
2022-11-07T11:46:02.493Z,8.13
2022-11-07T11:49:36.651Z,7.57
2022-11-07T11:52:39.027Z,7.90
2022-11-07T11:55:52.174Z,7.68
2022-11-07T11:59:09.731Z,7.07
2022-11-07T12:02:27.022Z,7.63
2022-11-07T12:06:04.848Z,7.30
2022-11-07T12:09:17.168Z,6.85
2022-11-07T12:12:38.185Z,7.47
2022-11-07T12:16:17.648Z,6.65
2022-11-07T12:19:46.241Z,7.20
2022-11-07T12:23:16.453Z,6.97
2022-11-07T12:26:24.278Z,6.82
2022-11-07T12:29:48.214Z,7.43
2022-11-07T12:32:50.128Z,7.65
2022-11-07T12:36:00.619Z,7.03
2022-11-07T12:39:17.916Z,7.07
2022-11-07T12:42:34.684Z,7.25
2022-11-07T12:45:48.807Z,6.65
2022-11-07T12:49:15.512Z,7.10
2022-11-07T12:53:06.021Z,7.03
2022-11-07T12:56:20.180Z,7.00
2022-11-07T12:59:29.793Z,6.60
2022-11-07T13:02:44.175Z,6.85
2022-11-07T13:06:19.140Z,7.28
2022-11-07T13:09:26.833Z,6.43
2022-11-07T13:12:36.477Z,7.35
2022-11-07T13:16:08.961Z,6.72
2022-11-07T13:19:21.010Z,7.05
2022-11-07T13:22:32.509Z,6.95
2022-11-07T13:25:34.989Z,7.67
2022-11-07T13:28:44.449Z,7.78
2022-11-07T13:31:46.502Z,8.38
2022-11-07T13:34:58.026Z,7.40
2022-11-07T13:38:12.043Z,7.18
2022-11-07T13:41:16.026Z,7.13
2022-11-07T13:44:29.510Z,8.55
2022-11-07T13:47:39.384Z,8.43
2022-11-07T13:50:46.649Z,7.03
2022-11-07T13:53:48.566Z,6.68
2022-11-07T13:56:59.714Z,7.53
2022-11-07T14:00:14.528Z,7.85
2022-11-07T14:03:29.519Z,7.65
2022-11-07T14:06:32.552Z,7.97
2022-11-07T14:09:34.807Z,8.77
2022-11-07T14:12:40.383Z,7.50
2022-11-07T14:15:54.020Z,8.02
2022-11-07T14:19:04.513Z,7.97
2022-11-07T14:22:08.756Z,7.68
2022-11-07T14:25:35.799Z,7.47
2022-11-07T14:28:39.975Z,8.13
2022-11-07T14:31:42.219Z,7.57
2022-11-07T14:34:46.451Z,7.10
2022-11-07T14:37:48.640Z,7.25
2022-11-07T14:40:53.182Z,7.90
2022-11-07T14:44:03.878Z,8.03
2022-11-07T14:47:08.432Z,7.87
2022-11-07T14:50:16.011Z,7.47
2022-11-07T14:53:22.397Z,7.62
2022-11-07T14:56:34.658Z,7.37
2022-11-07T14:59:38.057Z,8.67
2022-11-07T15:02:40.432Z,10.13
2022-11-07T15:05:42.388Z,11.55
2022-11-07T15:08:56.862Z,10.57
2022-11-07T15:12:00.954Z,10.90
2022-11-07T15:15:17.141Z,10.93
2022-11-07T15:18:26.802Z,10.55
2022-11-07T15:21:32.943Z,11.15
2022-11-07T15:24:45.218Z,11.32
2022-11-07T15:27:47.235Z,11.48
2022-11-07T15:30:51.994Z,10.60
2022-11-07T15:33:57.332Z,12.32
2022-11-07T15:36:59.262Z,12.77
2022-11-07T15:40:13.152Z,13.50
2022-11-07T15:43:15.483Z,12.37
2022-11-07T15:46:39.335Z,12.20
2022-11-07T15:49:41.402Z,13.93
2022-11-07T15:52:44.574Z,23.00
2022-11-07T15:55:47.313Z,25.70
2022-11-07T15:58:50.683Z,18.80
2022-11-07T16:01:52.715Z,19.50
2022-11-07T16:04:54.840Z,19.92
2022-11-07T16:07:58.402Z,20.70
2022-11-07T16:11:02.678Z,16.85
2022-11-07T16:14:36.399Z,16.73
2022-11-07T16:17:27.240Z,17.40
2022-11-07T16:20:33.633Z,22.13
2022-11-07T16:23:37.360Z,22.92
2022-11-07T16:26:40.475Z,24.52
2022-11-07T16:29:44.391Z,23.00
2022-11-07T16:32:47.227Z,21.70
2022-11-07T16:35:51.933Z,31.73
2022-11-07T16:38:55.549Z,34.30
2022-11-07T16:41:58.693Z,26.37
2022-11-07T16:45:02.544Z,25.23
2022-11-07T16:48:05.962Z,23.60
2022-11-07T16:51:15.606Z,23.23
2022-11-07T16:54:18.330Z,25.52
2022-11-07T16:57:21.234Z,73.22
2022-11-07T17:00:24.977Z,45.03
2022-11-07T17:03:29.589Z,37.03
2022-11-07T17:06:35.030Z,46.25
2022-11-07T17:09:38.807Z,29.35
2022-11-07T17:12:41.844Z,38.15
2022-11-07T17:15:47.472Z,33.13
2022-11-07T17:18:51.578Z,30.67
2022-11-07T17:21:54.339Z,27.92
2022-11-07T17:24:59.301Z,28.40
2022-11-07T17:28:02.127Z,25.88
2022-11-07T17:31:05.260Z,22.70
2022-11-07T17:34:08.856Z,21.77
2022-11-07T17:37:15.711Z,21.67
2022-11-07T17:40:26.759Z,21.50
2022-11-07T17:43:29.894Z,23.65
2022-11-07T17:46:34.656Z,27.23
2022-11-07T17:49:37.704Z,24.23
2022-11-07T17:52:41.876Z,22.73
2022-11-07T17:55:45.044Z,26.37
2022-11-07T17:58:52.631Z,35.92
2022-11-07T18:01:55.441Z,28.77
2022-11-07T18:04:58.406Z,29.33
2022-11-07T18:08:01.750Z,30.70
2022-11-07T18:11:04.951Z,32.03
2022-11-07T18:14:08.256Z,32.42
2022-11-07T18:17:11.430Z,33.47
2022-11-07T18:20:17.390Z,31.87
2022-11-07T18:23:20.505Z,32.85
2022-11-07T18:26:32.992Z,33.33
2022-11-07T18:29:36.782Z,32.53
2022-11-07T18:32:39.998Z,29.80
2022-11-07T18:35:43.059Z,30.07
2022-11-07T18:38:47.728Z,23.48
2022-11-07T18:41:54.599Z,22.48
2022-11-07T18:44:57.782Z,22.13
2022-11-07T18:48:02.049Z,23.57
2022-11-07T18:51:10.095Z,21.20
2022-11-07T18:54:14.354Z,23.25
2022-11-07T18:57:17.475Z,21.55
2022-11-07T19:00:20.793Z,22.23
2022-11-07T19:03:23.510Z,23.20
2022-11-07T19:06:33.241Z,24.47
2022-11-07T19:09:37.530Z,23.27
2022-11-07T19:12:41.222Z,23.73
2022-11-07T19:15:45.576Z,24.05
2022-11-07T19:18:50.395Z,22.60
2022-11-07T19:21:53.122Z,21.17
2022-11-07T19:24:56.117Z,21.25
2022-11-07T19:27:59.495Z,19.23
2022-11-07T19:31:04.362Z,17.00
2022-11-07T19:34:08.766Z,17.80
2022-11-07T19:37:12.520Z,22.00
2022-11-07T19:40:15.706Z,20.23
2022-11-07T19:43:19.797Z,19.50
2022-11-07T19:46:24.054Z,19.70
2022-11-07T19:49:26.745Z,20.23
2022-11-07T19:52:29.830Z,20.37
2022-11-07T19:55:33.750Z,20.75
2022-11-07T19:58:40.981Z,21.85
2022-11-07T20:02:04.134Z,22.25
2022-11-07T20:05:09.900Z,24.43
2022-11-07T20:08:14.230Z,25.03
2022-11-07T20:11:23.153Z,27.62
2022-11-07T20:14:28.668Z,26.35
2022-11-07T20:17:32.547Z,31.30
2022-11-07T20:20:35.190Z,23.07
2022-11-07T20:23:37.900Z,20.83
2022-11-07T20:26:45.238Z,23.00
2022-11-07T20:29:49.850Z,23.15
2022-11-07T20:32:53.020Z,24.33
2022-11-07T20:36:05.014Z,24.10
2022-11-07T20:39:08.847Z,23.83
2022-11-07T20:42:11.953Z,22.55
2022-11-07T20:45:14.814Z,23.87
2022-11-07T20:48:18.862Z,23.62
2022-11-07T20:51:26.206Z,21.00
2022-11-07T20:54:30.362Z,20.43
2022-11-07T20:57:34.609Z,20.90
2022-11-07T21:00:40.459Z,18.83
2022-11-07T21:03:43.579Z,18.52
2022-11-07T21:06:46.830Z,18.37
2022-11-07T21:09:49.977Z,18.93
2022-11-07T21:12:52.825Z,20.60
2022-11-07T21:15:55.821Z,22.75
2022-11-07T21:18:58.539Z,23.40
2022-11-07T21:22:01.123Z,24.73
2022-11-07T21:25:07.217Z,22.07
2022-11-07T21:28:13.153Z,23.33
2022-11-07T21:31:20.097Z,22.58
2022-11-07T21:34:22.079Z,22.17
2022-11-07T21:37:24.287Z,19.70
2022-11-07T21:40:27.231Z,20.63
2022-11-07T21:43:29.291Z,19.55
2022-11-07T21:46:34.417Z,19.48
2022-11-07T21:49:36.375Z,17.70
2022-11-07T21:52:38.330Z,17.00
2022-11-07T21:55:40.343Z,16.77
2022-11-07T21:58:42.831Z,17.08
2022-11-07T22:01:46.552Z,16.45
2022-11-07T22:04:48.607Z,15.77
2022-11-07T22:07:51.383Z,14.53
2022-11-07T22:10:53.544Z,15.00
2022-11-07T22:13:56.092Z,15.30
2022-11-07T22:16:58.057Z,15.30
2022-11-07T22:20:00.264Z,14.87
2022-11-07T22:23:02.242Z,15.57
2022-11-07T22:26:15.221Z,14.87
2022-11-07T22:29:17.143Z,16.60
2022-11-07T22:32:19.203Z,14.65
2022-11-07T22:35:21.230Z,15.25
2022-11-07T22:38:23.910Z,12.23
2022-11-07T22:41:27.606Z,13.27
2022-11-07T22:44:29.599Z,13.13
2022-11-07T22:47:31.605Z,13.68
2022-11-07T22:50:34.428Z,11.95
2022-11-07T22:53:38.208Z,13.57
2022-11-07T22:56:41.150Z,12.97
2022-11-07T22:59:43.139Z,12.52
2022-11-07T23:02:45.207Z,12.37
2022-11-07T23:05:47.208Z,13.25
2022-11-07T23:08:49.505Z,13.83
2022-11-07T23:11:51.529Z,12.03
2022-11-07T23:14:56.854Z,12.68
2022-11-07T23:17:59.091Z,12.82
2022-11-07T23:21:10.453Z,13.07
2022-11-07T23:24:12.800Z,12.70
2022-11-07T23:27:15.964Z,12.00
2022-11-07T23:30:20.359Z,12.73
2022-11-07T23:33:23.199Z,12.88
2022-11-07T23:36:26.138Z,11.77
2022-11-07T23:39:30.100Z,12.43
2022-11-07T23:42:32.806Z,12.17
2022-11-07T23:45:53.812Z,12.70
2022-11-07T23:49:15.011Z,12.23
2022-11-07T23:52:18.546Z,12.10
2022-11-07T23:55:39.992Z,11.77
2022-11-07T23:59:21.143Z,12.33
